sensor_id;sensor_type;location;lat;lon;timestamp;P1;durP1;ratioP1;P2;durP2;ratioP2
3911;SDS011;1971;51.778;10.330;2023-07-20T00:02:24;5.07;;;4.67;;
3911;SDS011;1971;51.778;10.330;2023-07-20T00:04:54;4.80;;;4.50;;
3911;SDS011;1971;51.778;10.330;2023-07-20T00:07:25;4.20;;;4.00;;
3911;SDS011;1971;51.778;10.330;2023-07-20T00:09:55;4.10;;;3.73;;
3911;SDS011;1971;51.778;10.330;2023-07-20T00:12:25;3.90;;;3.70;;
3911;SDS011;1971;51.778;10.330;2023-07-20T00:14:58;3.90;;;3.70;;
3911;SDS011;1971;51.778;10.330;2023-07-20T00:17:28;4.00;;;3.70;;
3911;SDS011;1971;51.778;10.330;2023-07-20T00:19:58;3.80;;;3.60;;
3911;SDS011;1971;51.778;10.330;2023-07-20T00:22:28;4.50;;;4.20;;
3911;SDS011;1971;51.778;10.330;2023-07-20T00:24:58;4.10;;;3.90;;
3911;SDS011;1971;51.778;10.330;2023-07-20T00:27:28;3.73;;;3.43;;
3911;SDS011;1971;51.778;10.330;2023-07-20T00:30:01;4.33;;;4.10;;
3911;SDS011;1971;51.778;10.330;2023-07-20T00:32:31;4.80;;;4.50;;
3911;SDS011;1971;51.778;10.330;2023-07-20T00:35:01;6.63;;;4.90;;
3911;SDS011;1971;51.778;10.330;2023-07-20T00:37:31;4.77;;;4.37;;
3911;SDS011;1971;51.778;10.330;2023-07-20T00:40:01;4.27;;;3.97;;
3911;SDS011;1971;51.778;10.330;2023-07-20T00:42:33;4.63;;;4.33;;
3911;SDS011;1971;51.778;10.330;2023-07-20T00:45:07;5.20;;;4.70;;
3911;SDS011;1971;51.778;10.330;2023-07-20T00:47:38;5.07;;;4.67;;
3911;SDS011;1971;51.778;10.330;2023-07-20T00:50:08;5.00;;;4.60;;
3911;SDS011;1971;51.778;10.330;2023-07-20T04:41:13;4.70;;;4.40;;
3911;SDS011;1971;51.778;10.330;2023-07-20T04:43:46;4.50;;;4.20;;
3911;SDS011;1971;51.778;10.330;2023-07-20T04:46:23;4.60;;;4.30;;
3911;SDS011;1971;51.778;10.330;2023-07-20T04:48:54;5.87;;;5.43;;
3911;SDS011;1971;51.778;10.330;2023-07-20T04:51:26;5.43;;;5.07;;
3911;SDS011;1971;51.778;10.330;2023-07-20T05:28:23;6.80;;;6.30;;
3911;SDS011;1971;51.778;10.330;2023-07-20T07:10:17;10.00;;;9.20;;
3911;SDS011;1971;51.778;10.330;2023-07-20T07:13:54;7.10;;;6.60;;
3911;SDS011;1971;51.778;10.330;2023-07-20T07:20:36;0.97;;;0.90;;
3911;SDS011;1971;51.778;10.330;2023-07-20T07:23:47;1.20;;;1.10;;
3911;SDS011;1971;51.778;10.330;2023-07-20T07:30:50;0.60;;;0.60;;
3911;SDS011;1971;51.778;10.330;2023-07-20T07:33:43;0.80;;;0.70;;
3911;SDS011;1971;51.778;10.330;2023-07-20T07:36:35;0.60;;;0.60;;
3911;SDS011;1971;51.778;10.330;2023-07-20T07:39:19;1.17;;;0.70;;
3911;SDS011;1971;51.778;10.330;2023-07-20T07:42:05;2.20;;;1.03;;
3911;SDS011;1971;51.778;10.330;2023-07-20T07:45:02;0.60;;;0.60;;
3911;SDS011;1971;51.778;10.330;2023-07-20T07:48:00;0.60;;;0.60;;
3911;SDS011;1971;51.778;10.330;2023-07-20T07:50:51;1.03;;;0.70;;
3911;SDS011;1971;51.778;10.330;2023-07-20T07:54:00;0.70;;;0.70;;
3911;SDS011;1971;51.778;10.330;2023-07-20T07:56:58;0.77;;;0.77;;
3911;SDS011;1971;51.778;10.330;2023-07-20T08:00:02;1.40;;;1.40;;
3911;SDS011;1971;51.778;10.330;2023-07-20T08:03:02;1.47;;;1.37;;
3911;SDS011;1971;51.778;10.330;2023-07-20T08:06:04;1.50;;;1.40;;
3911;SDS011;1971;51.778;10.330;2023-07-20T08:15:45;1.57;;;1.47;;
3911;SDS011;1971;51.778;10.330;2023-07-20T08:18:58;1.30;;;1.30;;
3911;SDS011;1971;51.778;10.330;2023-07-20T08:22:04;1.30;;;1.10;;
3911;SDS011;1971;51.778;10.330;2023-07-20T08:24:52;0.87;;;0.87;;
3911;SDS011;1971;51.778;10.330;2023-07-20T08:27:56;1.30;;;1.20;;
3911;SDS011;1971;51.778;10.330;2023-07-20T08:31:01;1.00;;;1.00;;
3911;SDS011;1971;51.778;10.330;2023-07-20T08:34:12;0.70;;;0.70;;
3911;SDS011;1971;51.778;10.330;2023-07-20T08:37:12;0.60;;;0.60;;
3911;SDS011;1971;51.778;10.330;2023-07-20T08:40:28;0.87;;;0.70;;
3911;SDS011;1971;51.778;10.330;2023-07-20T08:43:30;0.97;;;0.97;;
3911;SDS011;1971;51.778;10.330;2023-07-20T08:46:21;0.90;;;0.90;;
3911;SDS011;1971;51.778;10.330;2023-07-20T08:49:19;0.73;;;0.73;;
3911;SDS011;1971;51.778;10.330;2023-07-20T08:52:19;1.57;;;1.10;;
3911;SDS011;1971;51.778;10.330;2023-07-20T08:55:23;0.70;;;0.70;;
3911;SDS011;1971;51.778;10.330;2023-07-20T08:58:32;0.70;;;0.70;;
3911;SDS011;1971;51.778;10.330;2023-07-20T09:01:37;0.97;;;0.97;;
3911;SDS011;1971;51.778;10.330;2023-07-20T09:04:52;1.53;;;0.80;;
3911;SDS011;1971;51.778;10.330;2023-07-20T09:07:52;0.90;;;0.90;;
3911;SDS011;1971;51.778;10.330;2023-07-20T09:11:11;1.90;;;0.87;;
3911;SDS011;1971;51.778;10.330;2023-07-20T09:17:45;1.10;;;1.00;;
3911;SDS011;1971;51.778;10.330;2023-07-20T09:24:35;0.83;;;0.83;;
3911;SDS011;1971;51.778;10.330;2023-07-20T09:27:42;1.80;;;0.90;;
3911;SDS011;1971;51.778;10.330;2023-07-20T09:34:56;1.60;;;0.83;;
3911;SDS011;1971;51.778;10.330;2023-07-20T10:30:28;1.73;;;0.77;;
3911;SDS011;1971;51.778;10.330;2023-07-20T11:12:24;2.77;;;0.83;;
3911;SDS011;1971;51.778;10.330;2023-07-20T11:14:55;1.03;;;0.77;;
3911;SDS011;1971;51.778;10.330;2023-07-20T11:17:28;0.80;;;0.80;;
3911;SDS011;1971;51.778;10.330;2023-07-20T11:20:00;0.80;;;0.80;;
3911;SDS011;1971;51.778;10.330;2023-07-20T11:22:34;2.87;;;1.07;;
3911;SDS011;1971;51.778;10.330;2023-07-20T11:25:05;0.90;;;0.90;;
3911;SDS011;1971;51.778;10.330;2023-07-20T11:27:46;1.23;;;0.80;;
3911;SDS011;1971;51.778;10.330;2023-07-20T11:30:18;0.73;;;0.73;;
3911;SDS011;1971;51.778;10.330;2023-07-20T11:32:48;0.80;;;0.70;;
3911;SDS011;1971;51.778;10.330;2023-07-20T11:35:19;5.30;;;0.80;;
3911;SDS011;1971;51.778;10.330;2023-07-20T11:37:49;0.77;;;0.60;;
3911;SDS011;1971;51.778;10.330;2023-07-20T11:40:19;1.10;;;1.10;;
3911;SDS011;1971;51.778;10.330;2023-07-20T11:42:55;1.30;;;1.20;;
3911;SDS011;1971;51.778;10.330;2023-07-20T11:45:28;1.10;;;1.00;;
3911;SDS011;1971;51.778;10.330;2023-07-20T11:47:59;1.30;;;1.20;;
3911;SDS011;1971;51.778;10.330;2023-07-20T11:50:29;1.07;;;0.93;;
3911;SDS011;1971;51.778;10.330;2023-07-20T11:53:00;1.10;;;1.00;;
3911;SDS011;1971;51.778;10.330;2023-07-20T11:55:31;2.20;;;1.00;;
3911;SDS011;1971;51.778;10.330;2023-07-20T11:58:05;0.87;;;0.83;;
3911;SDS011;1971;51.778;10.330;2023-07-20T12:00:37;0.90;;;0.90;;
3911;SDS011;1971;51.778;10.330;2023-07-20T12:03:09;1.00;;;0.90;;
3911;SDS011;1971;51.778;10.330;2023-07-20T12:05:39;1.10;;;1.00;;
3911;SDS011;1971;51.778;10.330;2023-07-20T12:08:27;1.17;;;1.07;;
3911;SDS011;1971;51.778;10.330;2023-07-20T12:10:57;1.30;;;1.20;;
3911;SDS011;1971;51.778;10.330;2023-07-20T12:13:38;1.20;;;1.10;;
3911;SDS011;1971;51.778;10.330;2023-07-20T12:16:09;1.13;;;1.03;;
3911;SDS011;1971;51.778;10.330;2023-07-20T12:18:41;0.90;;;0.90;;
3911;SDS011;1971;51.778;10.330;2023-07-20T12:21:12;1.17;;;0.90;;
3911;SDS011;1971;51.778;10.330;2023-07-20T12:23:42;1.33;;;1.23;;
3911;SDS011;1971;51.778;10.330;2023-07-20T12:26:12;2.23;;;0.90;;
3911;SDS011;1971;51.778;10.330;2023-07-20T12:28:47;1.63;;;1.10;;
3911;SDS011;1971;51.778;10.330;2023-07-20T12:31:17;1.10;;;0.90;;
3911;SDS011;1971;51.778;10.330;2023-07-20T12:33:48;1.93;;;1.03;;
3911;SDS011;1971;51.778;10.330;2023-07-20T12:36:18;1.10;;;1.00;;
3911;SDS011;1971;51.778;10.330;2023-07-20T12:38:49;0.90;;;0.90;;
3911;SDS011;1971;51.778;10.330;2023-07-20T12:41:19;0.80;;;0.80;;
3911;SDS011;1971;51.778;10.330;2023-07-20T12:43:52;0.80;;;0.80;;
3911;SDS011;1971;51.778;10.330;2023-07-20T12:46:24;0.70;;;0.70;;
3911;SDS011;1971;51.778;10.330;2023-07-20T12:48:56;1.77;;;0.97;;
3911;SDS011;1971;51.778;10.330;2023-07-20T12:51:26;0.80;;;0.80;;
3911;SDS011;1971;51.778;10.330;2023-07-20T12:53:56;0.73;;;0.73;;
3911;SDS011;1971;51.778;10.330;2023-07-20T12:56:26;2.10;;;0.90;;
3911;SDS011;1971;51.778;10.330;2023-07-20T12:59:02;1.53;;;1.10;;
3911;SDS011;1971;51.778;10.330;2023-07-20T13:01:32;0.80;;;0.80;;
3911;SDS011;1971;51.778;10.330;2023-07-20T13:04:03;0.73;;;0.73;;
3911;SDS011;1971;51.778;10.330;2023-07-20T13:06:38;0.97;;;0.80;;
3911;SDS011;1971;51.778;10.330;2023-07-20T13:09:08;1.10;;;1.00;;
3911;SDS011;1971;51.778;10.330;2023-07-20T13:11:38;0.70;;;0.63;;
3911;SDS011;1971;51.778;10.330;2023-07-20T13:14:11;0.90;;;0.90;;
3911;SDS011;1971;51.778;10.330;2023-07-20T13:16:41;1.00;;;0.90;;
3911;SDS011;1971;51.778;10.330;2023-07-20T13:19:11;0.87;;;0.87;;
3911;SDS011;1971;51.778;10.330;2023-07-20T13:21:41;0.97;;;0.97;;
3911;SDS011;1971;51.778;10.330;2023-07-20T13:24:11;1.03;;;0.90;;
3911;SDS011;1971;51.778;10.330;2023-07-20T13:26:42;0.90;;;0.90;;
3911;SDS011;1971;51.778;10.330;2023-07-20T13:29:15;0.90;;;0.90;;
3911;SDS011;1971;51.778;10.330;2023-07-20T13:31:46;0.83;;;0.83;;
3911;SDS011;1971;51.778;10.330;2023-07-20T13:34:17;0.97;;;0.90;;
3911;SDS011;1971;51.778;10.330;2023-07-20T13:36:47;0.90;;;0.90;;
3911;SDS011;1971;51.778;10.330;2023-07-20T13:39:17;1.07;;;0.97;;
3911;SDS011;1971;51.778;10.330;2023-07-20T13:41:51;0.70;;;0.70;;
3911;SDS011;1971;51.778;10.330;2023-07-20T13:44:24;1.00;;;0.90;;
3911;SDS011;1971;51.778;10.330;2023-07-20T13:46:56;0.70;;;0.63;;
3911;SDS011;1971;51.778;10.330;2023-07-20T13:49:29;1.77;;;1.03;;
3911;SDS011;1971;51.778;10.330;2023-07-20T13:52:11;0.60;;;0.50;;
3911;SDS011;1971;51.778;10.330;2023-07-20T13:54:44;1.10;;;0.63;;
3911;SDS011;1971;51.778;10.330;2023-07-20T13:57:18;1.40;;;1.20;;
3911;SDS011;1971;51.778;10.330;2023-07-20T13:59:51;0.70;;;0.60;;
3911;SDS011;1971;51.778;10.330;2023-07-20T14:02:22;0.60;;;0.60;;
3911;SDS011;1971;51.778;10.330;2023-07-20T14:04:55;0.70;;;0.67;;
3911;SDS011;1971;51.778;10.330;2023-07-20T14:07:27;1.20;;;0.60;;
3911;SDS011;1971;51.778;10.330;2023-07-20T14:09:58;0.80;;;0.50;;
3911;SDS011;1971;51.778;10.330;2023-07-20T14:12:31;1.47;;;0.73;;
3911;SDS011;1971;51.778;10.330;2023-07-20T14:15:04;0.70;;;0.60;;
3911;SDS011;1971;51.778;10.330;2023-07-20T14:17:35;0.60;;;0.50;;
3911;SDS011;1971;51.778;10.330;2023-07-20T14:20:06;1.23;;;0.70;;
3911;SDS011;1971;51.778;10.330;2023-07-20T14:22:40;0.77;;;0.67;;
3911;SDS011;1971;51.778;10.330;2023-07-20T14:25:11;0.97;;;0.60;;
3911;SDS011;1971;51.778;10.330;2023-07-20T14:27:45;0.60;;;0.60;;
3911;SDS011;1971;51.778;10.330;2023-07-20T14:30:18;0.60;;;0.60;;
3911;SDS011;1971;51.778;10.330;2023-07-20T14:32:48;1.30;;;0.63;;
3911;SDS011;1971;51.778;10.330;2023-07-20T14:35:18;0.70;;;0.60;;
3911;SDS011;1971;51.778;10.330;2023-07-20T14:37:51;0.90;;;0.60;;
3911;SDS011;1971;51.778;10.330;2023-07-20T14:40:22;0.60;;;0.60;;
3911;SDS011;1971;51.778;10.330;2023-07-20T14:42:52;0.70;;;0.60;;
3911;SDS011;1971;51.778;10.330;2023-07-20T14:45:24;1.00;;;0.67;;
3911;SDS011;1971;51.778;10.330;2023-07-20T14:47:55;0.60;;;0.50;;
3911;SDS011;1971;51.778;10.330;2023-07-20T14:50:25;2.40;;;1.20;;
3911;SDS011;1971;51.778;10.330;2023-07-20T14:52:55;1.43;;;0.57;;
3911;SDS011;1971;51.778;10.330;2023-07-20T14:55:32;0.87;;;0.50;;
3911;SDS011;1971;51.778;10.330;2023-07-20T14:58:02;1.47;;;0.73;;
3911;SDS011;1971;51.778;10.330;2023-07-20T15:00:34;0.60;;;0.50;;
3911;SDS011;1971;51.778;10.330;2023-07-20T15:03:05;1.27;;;0.50;;
3911;SDS011;1971;51.778;10.330;2023-07-20T15:05:36;0.90;;;0.77;;
3911;SDS011;1971;51.778;10.330;2023-07-20T15:08:07;0.60;;;0.60;;
3911;SDS011;1971;51.778;10.330;2023-07-20T15:10:37;2.30;;;0.60;;
3911;SDS011;1971;51.778;10.330;2023-07-20T15:13:08;2.27;;;0.50;;
3911;SDS011;1971;51.778;10.330;2023-07-20T15:15:41;2.30;;;0.80;;
3911;SDS011;1971;51.778;10.330;2023-07-20T15:18:11;0.50;;;0.50;;
3911;SDS011;1971;51.778;10.330;2023-07-20T15:20:41;0.70;;;0.70;;
3911;SDS011;1971;51.778;10.330;2023-07-20T15:23:12;0.70;;;0.60;;
3911;SDS011;1971;51.778;10.330;2023-07-20T15:25:43;0.60;;;0.60;;
3911;SDS011;1971;51.778;10.330;2023-07-20T15:28:13;0.70;;;0.57;;
3911;SDS011;1971;51.778;10.330;2023-07-20T15:30:46;0.80;;;0.70;;
3911;SDS011;1971;51.778;10.330;2023-07-20T15:33:18;0.83;;;0.70;;
3911;SDS011;1971;51.778;10.330;2023-07-20T15:35:52;0.70;;;0.57;;
3911;SDS011;1971;51.778;10.330;2023-07-20T15:38:22;0.60;;;0.50;;
3911;SDS011;1971;51.778;10.330;2023-07-20T15:40:53;0.60;;;0.60;;
3911;SDS011;1971;51.778;10.330;2023-07-20T15:43:26;1.17;;;0.60;;
3911;SDS011;1971;51.778;10.330;2023-07-20T15:46:02;0.70;;;0.70;;
3911;SDS011;1971;51.778;10.330;2023-07-20T15:48:55;0.70;;;0.70;;
3911;SDS011;1971;51.778;10.330;2023-07-20T15:51:25;1.33;;;0.63;;
3911;SDS011;1971;51.778;10.330;2023-07-20T15:53:55;1.30;;;0.60;;
3911;SDS011;1971;51.778;10.330;2023-07-20T15:56:25;1.30;;;0.70;;
3911;SDS011;1971;51.778;10.330;2023-07-20T15:58:55;0.77;;;0.77;;
3911;SDS011;1971;51.778;10.330;2023-07-20T16:01:28;1.33;;;0.70;;
3911;SDS011;1971;51.778;10.330;2023-07-20T16:04:00;0.70;;;0.60;;
3911;SDS011;1971;51.778;10.330;2023-07-20T16:06:30;0.80;;;0.60;;
3911;SDS011;1971;51.778;10.330;2023-07-20T16:09:02;0.70;;;0.63;;
3911;SDS011;1971;51.778;10.330;2023-07-20T16:11:33;0.80;;;0.80;;
3911;SDS011;1971;51.778;10.330;2023-07-20T16:14:05;1.07;;;0.87;;
3911;SDS011;1971;51.778;10.330;2023-07-20T16:16:38;0.70;;;0.70;;
3911;SDS011;1971;51.778;10.330;2023-07-20T16:19:09;0.90;;;0.60;;
3911;SDS011;1971;51.778;10.330;2023-07-20T16:21:39;4.57;;;0.80;;
3911;SDS011;1971;51.778;10.330;2023-07-20T16:24:09;0.60;;;0.50;;
3911;SDS011;1971;51.778;10.330;2023-07-20T16:26:43;1.33;;;1.00;;
3911;SDS011;1971;51.778;10.330;2023-07-20T16:29:14;0.70;;;0.63;;
3911;SDS011;1971;51.778;10.330;2023-07-20T16:31:49;0.70;;;0.70;;
3911;SDS011;1971;51.778;10.330;2023-07-20T16:34:22;0.80;;;0.77;;
3911;SDS011;1971;51.778;10.330;2023-07-20T16:36:52;0.70;;;0.70;;
3911;SDS011;1971;51.778;10.330;2023-07-20T16:39:23;5.10;;;0.90;;
3911;SDS011;1971;51.778;10.330;2023-07-20T16:41:53;0.60;;;0.50;;
3911;SDS011;1971;51.778;10.330;2023-07-20T16:44:26;1.13;;;0.80;;
3911;SDS011;1971;51.778;10.330;2023-07-20T16:46:59;0.70;;;0.60;;
3911;SDS011;1971;51.778;10.330;2023-07-20T16:49:29;0.70;;;0.70;;
3911;SDS011;1971;51.778;10.330;2023-07-20T16:51:59;0.60;;;0.50;;
3911;SDS011;1971;51.778;10.330;2023-07-20T16:54:29;1.47;;;0.60;;
3911;SDS011;1971;51.778;10.330;2023-07-20T16:57:00;0.93;;;0.80;;
3911;SDS011;1971;51.778;10.330;2023-07-20T16:59:31;0.80;;;0.80;;
3911;SDS011;1971;51.778;10.330;2023-07-20T17:02:04;1.70;;;0.90;;
3911;SDS011;1971;51.778;10.330;2023-07-20T17:04:35;0.70;;;0.60;;
3911;SDS011;1971;51.778;10.330;2023-07-20T17:07:06;0.90;;;0.60;;
3911;SDS011;1971;51.778;10.330;2023-07-20T17:09:40;0.50;;;0.50;;
3911;SDS011;1971;51.778;10.330;2023-07-20T17:12:10;2.30;;;0.70;;
3911;SDS011;1971;51.778;10.330;2023-07-20T17:14:40;0.60;;;0.57;;
3911;SDS011;1971;51.778;10.330;2023-07-20T17:17:13;0.90;;;0.70;;
3911;SDS011;1971;51.778;10.330;2023-07-20T17:19:43;1.77;;;0.80;;
3911;SDS011;1971;51.778;10.330;2023-07-20T17:22:34;0.60;;;0.60;;
3911;SDS011;1971;51.778;10.330;2023-07-20T17:25:04;0.90;;;0.60;;
3911;SDS011;1971;51.778;10.330;2023-07-20T17:27:39;0.80;;;0.70;;
3911;SDS011;1971;51.778;10.330;2023-07-20T17:30:12;0.70;;;0.70;;
3911;SDS011;1971;51.778;10.330;2023-07-20T17:32:46;1.47;;;0.70;;
3911;SDS011;1971;51.778;10.330;2023-07-20T17:35:18;1.73;;;0.80;;
3911;SDS011;1971;51.778;10.330;2023-07-20T17:37:48;0.97;;;0.70;;
3911;SDS011;1971;51.778;10.330;2023-07-20T17:40:21;1.10;;;1.00;;
3911;SDS011;1971;51.778;10.330;2023-07-20T17:42:54;0.77;;;0.77;;
3911;SDS011;1971;51.778;10.330;2023-07-20T17:45:28;1.70;;;0.70;;
3911;SDS011;1971;51.778;10.330;2023-07-20T17:48:02;0.80;;;0.60;;
3911;SDS011;1971;51.778;10.330;2023-07-20T17:50:32;0.93;;;0.60;;
3911;SDS011;1971;51.778;10.330;2023-07-20T17:53:03;0.90;;;0.60;;
3911;SDS011;1971;51.778;10.330;2023-07-20T17:55:33;1.87;;;0.67;;
3911;SDS011;1971;51.778;10.330;2023-07-20T17:58:03;0.80;;;0.63;;
3911;SDS011;1971;51.778;10.330;2023-07-20T18:00:33;1.00;;;0.80;;
3911;SDS011;1971;51.778;10.330;2023-07-20T18:03:07;0.70;;;0.70;;
3911;SDS011;1971;51.778;10.330;2023-07-20T18:05:39;0.97;;;0.70;;
3911;SDS011;1971;51.778;10.330;2023-07-20T18:08:09;0.70;;;0.70;;
3911;SDS011;1971;51.778;10.330;2023-07-20T18:10:39;1.30;;;0.80;;
3911;SDS011;1971;51.778;10.330;2023-07-20T18:13:10;1.33;;;0.70;;
3911;SDS011;1971;51.778;10.330;2023-07-20T18:15:40;0.80;;;0.70;;
3911;SDS011;1971;51.778;10.330;2023-07-20T18:18:13;1.00;;;0.77;;
3911;SDS011;1971;51.778;10.330;2023-07-20T18:20:44;0.70;;;0.60;;
3911;SDS011;1971;51.778;10.330;2023-07-20T18:23:14;0.97;;;0.90;;
3911;SDS011;1971;51.778;10.330;2023-07-20T18:25:44;2.10;;;0.80;;
3911;SDS011;1971;51.778;10.330;2023-07-20T18:28:15;1.50;;;0.97;;
3911;SDS011;1971;51.778;10.330;2023-07-20T18:30:46;0.80;;;0.80;;
3911;SDS011;1971;51.778;10.330;2023-07-20T18:33:19;1.07;;;0.70;;
3911;SDS011;1971;51.778;10.330;2023-07-20T18:35:52;0.73;;;0.73;;
3911;SDS011;1971;51.778;10.330;2023-07-20T18:38:22;1.43;;;0.60;;
3911;SDS011;1971;51.778;10.330;2023-07-20T18:40:53;1.00;;;0.90;;
3911;SDS011;1971;51.778;10.330;2023-07-20T18:43:23;0.97;;;0.87;;
3911;SDS011;1971;51.778;10.330;2023-07-20T18:45:53;0.70;;;0.60;;
3911;SDS011;1971;51.778;10.330;2023-07-20T18:48:27;0.70;;;0.70;;
3911;SDS011;1971;51.778;10.330;2023-07-20T18:50:57;1.40;;;0.97;;
3911;SDS011;1971;51.778;10.330;2023-07-20T18:53:27;1.47;;;1.30;;
3911;SDS011;1971;51.778;10.330;2023-07-20T18:55:58;4.00;;;1.00;;
3911;SDS011;1971;51.778;10.330;2023-07-20T18:58:29;3.87;;;1.20;;
3911;SDS011;1971;51.778;10.330;2023-07-20T19:01:00;1.53;;;0.83;;
3911;SDS011;1971;51.778;10.330;2023-07-20T19:03:33;1.40;;;1.30;;
3911;SDS011;1971;51.778;10.330;2023-07-20T19:06:03;1.37;;;1.30;;
3911;SDS011;1971;51.778;10.330;2023-07-20T19:08:34;2.17;;;1.00;;
3911;SDS011;1971;51.778;10.330;2023-07-20T19:11:04;3.50;;;1.37;;
3911;SDS011;1971;51.778;10.330;2023-07-20T19:13:39;1.70;;;1.60;;
3911;SDS011;1971;51.778;10.330;2023-07-20T19:16:09;1.10;;;1.00;;
3911;SDS011;1971;51.778;10.330;2023-07-20T19:18:42;1.53;;;1.10;;
3911;SDS011;1971;51.778;10.330;2023-07-20T19:21:12;1.47;;;1.37;;
3911;SDS011;1971;51.778;10.330;2023-07-20T19:23:43;1.23;;;1.17;;
3911;SDS011;1971;51.778;10.330;2023-07-20T19:26:13;1.10;;;1.10;;
3911;SDS011;1971;51.778;10.330;2023-07-20T19:28:43;2.13;;;1.30;;
3911;SDS011;1971;51.778;10.330;2023-07-20T19:31:13;1.37;;;1.27;;
3911;SDS011;1971;51.778;10.330;2023-07-20T19:33:46;2.03;;;1.13;;
3911;SDS011;1971;51.778;10.330;2023-07-20T19:36:17;1.17;;;0.97;;
3911;SDS011;1971;51.778;10.330;2023-07-20T19:38:48;1.40;;;1.30;;
3911;SDS011;1971;51.778;10.330;2023-07-20T19:41:18;3.17;;;1.70;;
3911;SDS011;1971;51.778;10.330;2023-07-20T19:43:48;2.50;;;1.30;;
3911;SDS011;1971;51.778;10.330;2023-07-20T19:46:19;1.60;;;1.10;;
3911;SDS011;1971;51.778;10.330;2023-07-20T19:48:53;1.20;;;1.10;;
3911;SDS011;1971;51.778;10.330;2023-07-20T19:51:24;1.30;;;1.20;;
3911;SDS011;1971;51.778;10.330;2023-07-20T19:53:54;1.77;;;1.20;;
3911;SDS011;1971;51.778;10.330;2023-07-20T19:56:27;1.57;;;1.27;;
3911;SDS011;1971;51.778;10.330;2023-07-20T19:58:58;1.23;;;1.07;;
3911;SDS011;1971;51.778;10.330;2023-07-20T20:01:28;1.43;;;1.33;;
3911;SDS011;1971;51.778;10.330;2023-07-20T20:04:04;1.40;;;1.30;;
3911;SDS011;1971;51.778;10.330;2023-07-20T20:06:37;1.63;;;1.13;;
3911;SDS011;1971;51.778;10.330;2023-07-20T20:09:08;2.00;;;1.37;;
3911;SDS011;1971;51.778;10.330;2023-07-20T20:11:39;1.23;;;1.10;;
3911;SDS011;1971;51.778;10.330;2023-07-20T20:14:09;1.23;;;1.10;;
3911;SDS011;1971;51.778;10.330;2023-07-20T20:16:39;1.33;;;1.10;;
3911;SDS011;1971;51.778;10.330;2023-07-20T20:19:13;1.57;;;1.37;;
3911;SDS011;1971;51.778;10.330;2023-07-20T20:21:44;2.10;;;1.90;;
3911;SDS011;1971;51.778;10.330;2023-07-20T20:24:17;1.40;;;1.20;;
3911;SDS011;1971;51.778;10.330;2023-07-20T20:26:47;4.10;;;1.67;;
3911;SDS011;1971;51.778;10.330;2023-07-20T20:29:17;2.57;;;1.40;;
3911;SDS011;1971;51.778;10.330;2023-07-20T20:31:47;2.43;;;1.53;;
3911;SDS011;1971;51.778;10.330;2023-07-20T20:34:20;1.30;;;1.20;;
3911;SDS011;1971;51.778;10.330;2023-07-20T20:36:50;1.87;;;1.77;;
3911;SDS011;1971;51.778;10.330;2023-07-20T20:39:21;3.30;;;1.63;;
3911;SDS011;1971;51.778;10.330;2023-07-20T20:41:51;2.53;;;1.70;;
3911;SDS011;1971;51.778;10.330;2023-07-20T20:44:21;1.43;;;1.30;;
3911;SDS011;1971;51.778;10.330;2023-07-20T20:46:53;1.60;;;1.43;;
3911;SDS011;1971;51.778;10.330;2023-07-20T20:49:30;1.73;;;1.63;;
3911;SDS011;1971;51.778;10.330;2023-07-20T20:52:01;1.93;;;1.60;;
3911;SDS011;1971;51.778;10.330;2023-07-20T20:54:31;1.60;;;1.50;;
3911;SDS011;1971;51.778;10.330;2023-07-20T20:57:01;2.63;;;2.10;;
3911;SDS011;1971;51.778;10.330;2023-07-20T20:59:31;1.83;;;1.63;;
3911;SDS011;1971;51.778;10.330;2023-07-20T21:02:04;3.77;;;1.93;;
3911;SDS011;1971;51.778;10.330;2023-07-20T21:04:37;1.43;;;1.33;;
3911;SDS011;1971;51.778;10.330;2023-07-20T21:07:08;2.37;;;1.93;;
3911;SDS011;1971;51.778;10.330;2023-07-20T21:09:38;4.27;;;2.10;;
3911;SDS011;1971;51.778;10.330;2023-07-20T21:12:09;1.67;;;1.57;;
3911;SDS011;1971;51.778;10.330;2023-07-20T21:14:39;3.37;;;1.97;;
3911;SDS011;1971;51.778;10.330;2023-07-20T21:17:10;2.07;;;1.87;;
3911;SDS011;1971;51.778;10.330;2023-07-20T21:19:43;8.73;;;2.07;;
3911;SDS011;1971;51.778;10.330;2023-07-20T21:22:13;2.07;;;1.90;;
3911;SDS011;1971;51.778;10.330;2023-07-20T21:24:43;1.90;;;1.80;;
3911;SDS011;1971;51.778;10.330;2023-07-20T21:27:13;2.70;;;2.07;;
3911;SDS011;1971;51.778;10.330;2023-07-20T21:29:46;2.30;;;2.20;;
3911;SDS011;1971;51.778;10.330;2023-07-20T21:32:17;2.63;;;2.40;;
3911;SDS011;1971;51.778;10.330;2023-07-20T21:34:50;2.30;;;1.90;;
3911;SDS011;1971;51.778;10.330;2023-07-20T21:37:20;1.63;;;1.50;;
3911;SDS011;1971;51.778;10.330;2023-07-20T21:39:50;2.23;;;1.63;;
3911;SDS011;1971;51.778;10.330;2023-07-20T21:42:21;1.83;;;1.73;;
3911;SDS011;1971;51.778;10.330;2023-07-20T21:44:51;2.00;;;1.80;;
3911;SDS011;1971;51.778;10.330;2023-07-20T21:47:21;2.10;;;1.60;;
3911;SDS011;1971;51.778;10.330;2023-07-20T21:49:54;1.80;;;1.70;;
3911;SDS011;1971;51.778;10.330;2023-07-20T21:52:26;2.80;;;1.90;;
3911;SDS011;1971;51.778;10.330;2023-07-20T21:54:56;1.30;;;1.20;;
3911;SDS011;1971;51.778;10.330;2023-07-20T21:57:30;2.33;;;1.70;;
3911;SDS011;1971;51.778;10.330;2023-07-20T22:00:01;1.53;;;1.43;;
3911;SDS011;1971;51.778;10.330;2023-07-20T22:02:32;1.67;;;1.20;;
3911;SDS011;1971;51.778;10.330;2023-07-20T22:05:05;4.53;;;1.83;;
3911;SDS011;1971;51.778;10.330;2023-07-20T22:07:36;2.80;;;1.77;;
3911;SDS011;1971;51.778;10.330;2023-07-20T22:10:07;1.90;;;1.67;;
3911;SDS011;1971;51.778;10.330;2023-07-20T22:12:37;2.10;;;1.90;;
3911;SDS011;1971;51.778;10.330;2023-07-20T22:15:08;2.40;;;1.60;;
3911;SDS011;1971;51.778;10.330;2023-07-20T22:17:39;1.60;;;1.50;;
3911;SDS011;1971;51.778;10.330;2023-07-20T22:20:12;2.10;;;1.90;;
3911;SDS011;1971;51.778;10.330;2023-07-20T22:22:43;2.10;;;1.50;;
3911;SDS011;1971;51.778;10.330;2023-07-20T22:25:13;2.10;;;1.57;;
3911;SDS011;1971;51.778;10.330;2023-07-20T22:27:43;1.60;;;1.50;;
3911;SDS011;1971;51.778;10.330;2023-07-20T22:30:13;1.70;;;1.60;;
3911;SDS011;1971;51.778;10.330;2023-07-20T22:32:45;1.40;;;1.30;;
3911;SDS011;1971;51.778;10.330;2023-07-20T22:35:18;1.50;;;1.40;;
3911;SDS011;1971;51.778;10.330;2023-07-20T22:37:49;3.03;;;1.97;;
3911;SDS011;1971;51.778;10.330;2023-07-20T22:40:19;1.90;;;1.80;;
3911;SDS011;1971;51.778;10.330;2023-07-20T22:42:49;3.10;;;1.80;;
3911;SDS011;1971;51.778;10.330;2023-07-20T22:45:19;1.87;;;1.70;;
3911;SDS011;1971;51.778;10.330;2023-07-20T22:47:50;1.67;;;1.57;;
3911;SDS011;1971;51.778;10.330;2023-07-20T22:50:23;1.60;;;1.50;;
3911;SDS011;1971;51.778;10.330;2023-07-20T22:52:53;1.80;;;1.67;;
3911;SDS011;1971;51.778;10.330;2023-07-20T22:55:23;1.73;;;1.63;;
3911;SDS011;1971;51.778;10.330;2023-07-20T22:57:54;2.60;;;1.80;;
3911;SDS011;1971;51.778;10.330;2023-07-20T23:00:25;3.63;;;1.80;;
3911;SDS011;1971;51.778;10.330;2023-07-20T23:02:58;2.70;;;1.73;;
3911;SDS011;1971;51.778;10.330;2023-07-20T23:05:31;2.40;;;1.87;;
3911;SDS011;1971;51.778;10.330;2023-07-20T23:08:01;2.37;;;2.17;;
3911;SDS011;1971;51.778;10.330;2023-07-20T23:10:31;1.97;;;1.60;;
3911;SDS011;1971;51.778;10.330;2023-07-20T23:13:02;1.80;;;1.70;;
3911;SDS011;1971;51.778;10.330;2023-07-20T23:15:32;4.20;;;1.40;;
3911;SDS011;1971;51.778;10.330;2023-07-20T23:18:05;2.37;;;1.60;;
3911;SDS011;1971;51.778;10.330;2023-07-20T23:20:38;1.53;;;1.43;;
3911;SDS011;1971;51.778;10.330;2023-07-20T23:23:08;2.30;;;1.70;;
3911;SDS011;1971;51.778;10.330;2023-07-20T23:25:38;2.20;;;1.50;;
3911;SDS011;1971;51.778;10.330;2023-07-20T23:28:08;1.60;;;1.50;;
3911;SDS011;1971;51.778;10.330;2023-07-20T23:30:39;2.30;;;2.10;;
3911;SDS011;1971;51.778;10.330;2023-07-20T23:33:15;1.60;;;1.50;;
3911;SDS011;1971;51.778;10.330;2023-07-20T23:35:51;5.03;;;1.83;;
3911;SDS011;1971;51.778;10.330;2023-07-20T23:38:21;8.80;;;2.00;;
3911;SDS011;1971;51.778;10.330;2023-07-20T23:40:52;2.10;;;1.90;;
3911;SDS011;1971;51.778;10.330;2023-07-20T23:43:23;2.13;;;1.63;;
3911;SDS011;1971;51.778;10.330;2023-07-20T23:45:53;2.20;;;1.60;;
3911;SDS011;1971;51.778;10.330;2023-07-20T23:48:30;1.87;;;1.30;;